Time;durP1;ratioP1;P1;durP2;ratioP2;P2;SDS_P1;SDS_P2;PMS_P1;PMS_P2;Temp;Humidity;BMP_temperature;BMP_pressure;BME280_temperature;BME280_humidity;BME280_pressure;Samples;Min_cycle;Max_cycle;Signal;HPM_P1;HPM_P2
2023/04/16 00:01:26;;;;;;;47.20;31.10;;;9.00;99.90;;;;;;12501648;28;20036;-82
2023/04/16 00:07:41;;;;;;;48.80;31.10;;;9.00;99.90;;;;;;12504603;28;20061;-82
2023/04/16 00:13:49;;;;;;;50.80;32.70;;;9.10;99.90;;;;;;12492329;28;20045;-82
2023/04/16 00:19:57;;;;;;;50.40;33.35;;;9.00;99.90;;;;;;12489921;28;20053;-82
2023/04/16 00:26:05;;;;;;;50.38;32.75;;;8.90;99.90;;;;;;12488448;28;20132;-82
2023/04/16 00:32:21;;;;;;;47.47;33.50;;;9.00;99.90;;;;;;12503086;28;20048;-82
2023/04/16 00:38:31;;;;;;;47.85;32.15;;;9.10;99.90;;;;;;12488320;28;20091;-82
2023/04/16 00:44:39;;;;;;;47.83;32.90;;;9.00;99.90;;;;;;12504214;28;20041;-82
2023/04/16 00:50:47;;;;;;;50.63;32.95;;;9.00;99.90;;;;;;12499887;28;20539;-82
2023/04/16 00:56:57;;;;;;;45.58;32.03;;;9.00;99.90;;;;;;12513419;28;20057;-82
2023/04/16 01:03:12;;;;;;;42.08;30.85;;;9.00;99.90;;;;;;12501051;28;20409;-82
2023/04/16 01:09:21;;;;;;;45.30;31.27;;;9.10;99.90;;;;;;12493067;28;20068;-82
2023/04/16 01:15:29;;;;;;;42.55;30.30;;;9.00;99.90;;;;;;12499536;28;20053;-82
2023/04/16 01:21:37;;;;;;;47.78;31.60;;;9.00;99.90;;;;;;12497982;28;20048;-82
2023/04/16 01:28:01;;;;;;;42.03;29.80;;;8.90;99.90;;;;;;12489180;28;20622;-83
2023/04/16 01:34:17;;;;;;;41.22;29.92;;;8.90;99.90;;;;;;12509775;28;20049;-82
2023/04/16 01:40:25;;;;;;;42.47;28.75;;;8.90;99.90;;;;;;12515087;28;20080;-82
2023/04/16 01:46:34;;;;;;;37.38;25.92;;;8.90;99.90;;;;;;12524815;28;20092;-82
2023/04/16 01:52:44;;;;;;;42.95;27.25;;;8.80;99.90;;;;;;12498616;28;20060;-82
2023/04/16 01:58:52;;;;;;;36.03;26.90;;;8.80;99.90;;;;;;12517216;28;20454;-82
2023/04/16 02:05:08;;;;;;;36.92;25.65;;;8.70;99.90;;;;;;12506782;28;20072;-82
2023/04/16 02:11:17;;;;;;;35.70;25.73;;;8.70;99.90;;;;;;12520436;28;20118;-82
2023/04/16 02:17:25;;;;;;;35.20;24.13;;;8.60;99.90;;;;;;12496720;28;20165;-82
2023/04/16 02:23:33;;;;;;;36.30;25.67;;;8.70;99.90;;;;;;12497908;28;20056;-82
2023/04/16 02:29:41;;;;;;;33.42;23.20;;;8.60;99.90;;;;;;12493238;28;20094;-83
2023/04/16 02:35:50;;;;;;;34.97;23.50;;;8.50;99.90;;;;;;12484529;28;20053;-82
2023/04/16 02:42:00;;;;;;;31.45;22.42;;;8.40;99.90;;;;;;12494210;28;20052;-83
2023/04/16 02:48:08;;;;;;;30.92;23.23;;;8.40;99.90;;;;;;12494857;28;20506;-82
2023/04/16 02:54:16;;;;;;;37.65;22.23;;;8.40;99.90;;;;;;12473094;28;20463;-82
2023/04/16 03:00:24;;;;;;;35.58;22.63;;;8.40;99.90;;;;;;12505895;28;20048;-82
2023/04/16 03:06:32;;;;;;;31.63;20.90;;;8.30;99.90;;;;;;12511518;28;20091;-82
2023/04/16 03:12:40;;;;;;;32.67;20.50;;;8.30;99.90;;;;;;12477054;28;20113;-82
2023/04/16 03:18:48;;;;;;;29.50;20.65;;;8.20;99.90;;;;;;12479370;28;20118;-82
2023/04/16 03:24:56;;;;;;;32.35;19.48;;;8.10;99.90;;;;;;12506795;28;20068;-82
2023/04/16 03:31:04;;;;;;;30.70;20.90;;;8.10;99.90;;;;;;12515881;28;20063;-82
2023/04/16 03:37:12;;;;;;;34.05;22.52;;;8.10;99.90;;;;;;12508816;28;20053;-82
2023/04/16 03:43:20;;;;;;;28.73;21.95;;;8.00;99.90;;;;;;12504979;28;20093;-82
2023/04/16 03:49:28;;;;;;;35.83;23.58;;;8.00;99.90;;;;;;12486684;28;20056;-82
2023/04/16 03:55:36;;;;;;;33.10;23.73;;;8.10;99.90;;;;;;12479901;28;20577;-82
2023/04/16 04:01:51;;;;;;;38.05;24.23;;;8.10;99.90;;;;;;12513209;28;20062;-83
2023/04/16 04:08:06;;;;;;;37.35;24.77;;;8.00;99.90;;;;;;12491111;28;20049;-82
2023/04/16 04:14:17;;;;;;;35.63;25.10;;;7.90;99.90;;;;;;12494285;28;20064;-82
2023/04/16 04:20:26;;;;;;;34.30;23.92;;;7.90;99.90;;;;;;12499378;28;20116;-81
2023/04/16 04:26:34;;;;;;;35.70;23.27;;;7.90;99.90;;;;;;12500139;28;20536;-81
2023/04/16 04:32:42;;;;;;;34.10;22.42;;;7.80;99.90;;;;;;12508369;28;20084;-83
2023/04/16 04:38:50;;;;;;;39.50;24.50;;;7.80;99.90;;;;;;12489489;28;20068;-82
2023/04/16 04:44:58;;;;;;;34.15;23.50;;;7.70;99.90;;;;;;12487261;28;20046;-83
2023/04/16 04:51:06;;;;;;;34.00;23.48;;;7.80;99.90;;;;;;12488993;28;20064;-83
2023/04/16 04:57:14;;;;;;;37.72;23.17;;;7.70;99.90;;;;;;12475205;28;20050;-82
2023/04/16 05:03:30;;;;;;;36.83;24.20;;;7.70;99.90;;;;;;12487733;28;20052;-82
2023/04/16 05:09:39;;;;;;;36.45;24.27;;;7.60;99.90;;;;;;12500478;28;20508;-82
2023/04/16 05:15:47;;;;;;;36.38;23.02;;;7.70;99.90;;;;;;12498705;28;20457;-82
2023/04/16 05:21:55;;;;;;;38.20;25.15;;;7.80;99.90;;;;;;12514855;28;20607;-82
2023/04/16 05:28:03;;;;;;;39.95;24.65;;;7.60;99.90;;;;;;12516437;28;20399;-82
2023/04/16 05:34:11;;;;;;;38.72;24.85;;;7.60;99.90;;;;;;12497226;28;20052;-82
2023/04/16 05:40:19;;;;;;;39.38;26.20;;;7.60;99.90;;;;;;12525658;28;20053;-83
2023/04/16 05:46:27;;;;;;;38.25;25.88;;;7.60;99.90;;;;;;12523433;28;20048;-82
2023/04/16 05:52:35;;;;;;;37.97;25.45;;;7.50;99.90;;;;;;12514458;28;20140;-82
2023/04/16 05:58:43;;;;;;;33.83;22.63;;;7.60;99.90;;;;;;12535963;28;20064;-82
2023/04/16 06:04:58;;;;;;;38.22;23.25;;;7.60;99.90;;;;;;12496826;28;20057;-82
2023/04/16 06:11:06;;;;;;;37.70;22.92;;;7.70;99.90;;;;;;12522248;28;20044;-82
2023/04/16 06:17:15;;;;;;;34.30;22.40;;;7.70;99.90;;;;;;12537743;28;20085;-82
2023/04/16 06:23:26;;;;;;;38.00;23.15;;;7.80;99.90;;;;;;12506060;28;20054;-82
2023/04/16 06:29:34;;;;;;;34.17;22.48;;;7.70;99.90;;;;;;12508642;28;20104;-82
2023/04/16 06:35:42;;;;;;;39.92;24.92;;;7.80;99.90;;;;;;12492411;28;20099;-82
2023/04/16 06:41:50;;;;;;;39.72;23.70;;;7.90;99.90;;;;;;12514199;28;20143;-82
2023/04/16 06:47:58;;;;;;;34.85;23.92;;;8.00;99.90;;;;;;12530085;28;20049;-82
2023/04/16 06:54:06;;;;;;;36.45;23.98;;;8.00;99.90;;;;;;12494828;28;20126;-83
2023/04/16 07:00:14;;;;;;;34.53;24.52;;;8.10;99.90;;;;;;12531196;28;20417;-83
2023/04/16 07:06:30;;;;;;;36.03;23.70;;;8.00;99.90;;;;;;12510433;28;20045;-83
2023/04/16 07:12:39;;;;;;;33.03;23.25;;;8.20;99.90;;;;;;12507559;28;20048;-83
2023/04/16 07:18:47;;;;;;;37.35;24.63;;;8.10;99.90;;;;;;12523802;28;20132;-82
2023/04/16 07:24:55;;;;;;;35.75;25.15;;;8.20;99.90;;;;;;12500432;28;20099;-82
2023/04/16 07:31:03;;;;;;;33.42;23.55;;;8.20;99.90;;;;;;12519669;28;20049;-83
2023/04/16 07:37:12;;;;;;;38.85;24.13;;;8.30;99.90;;;;;;12517029;28;20144;-83
2023/04/16 07:43:20;;;;;;;32.40;22.05;;;8.50;99.90;;;;;;12486266;28;20597;-83
2023/04/16 07:49:29;;;;;;;33.28;22.40;;;8.80;99.90;;;;;;12502319;28;20519;-83
2023/04/16 07:55:37;;;;;;;32.35;22.38;;;8.90;99.90;;;;;;12500890;28;20053;-83
2023/04/16 08:01:46;;;;;;;33.58;22.27;;;8.90;99.90;;;;;;12526647;28;20068;-83
2023/04/16 08:07:55;;;;;;;33.63;22.00;;;8.90;99.90;;;;;;12503744;28;20416;-83
2023/04/16 08:14:03;;;;;;;31.90;20.50;;;9.10;99.90;;;;;;12507122;28;20074;-83
2023/04/16 08:20:11;;;;;;;28.27;19.60;;;9.10;99.90;;;;;;12476575;28;20057;-83
2023/04/16 08:26:20;;;;;;;31.67;20.80;;;9.00;99.90;;;;;;12503975;28;20049;-84
2023/04/16 08:32:29;;;;;;;27.55;19.50;;;8.90;99.90;;;;;;12508308;28;20105;-84
2023/04/16 08:38:38;;;;;;;31.13;20.70;;;8.90;99.90;;;;;;12505908;28;20048;-83
2023/04/16 08:44:48;;;;;;;32.80;20.25;;;9.00;99.90;;;;;;12487856;28;20052;-84
2023/04/16 08:51:00;;;;;;;28.67;20.17;;;9.00;99.90;;;;;;12481828;28;20041;-84
2023/04/16 08:57:10;;;;;;;29.92;18.35;;;9.00;99.90;;;;;;12485273;28;20132;-83
2023/04/16 09:03:26;;;;;;;30.63;19.58;;;9.00;99.90;;;;;;12504097;28;20056;-83
2023/04/16 09:09:38;;;;;;;27.67;18.52;;;9.00;99.90;;;;;;12513394;28;20064;-83
2023/04/16 09:15:49;;;;;;;26.20;18.98;;;9.00;99.90;;;;;;12515610;28;20049;-83
2023/04/16 09:21:58;;;;;;;29.27;18.80;;;9.00;99.90;;;;;;12509837;28;20081;-83
2023/04/16 09:28:06;;;;;;;27.55;18.38;;;9.00;99.90;;;;;;12510141;28;20049;-83
2023/04/16 09:34:21;;;;;;;27.92;17.65;;;8.90;99.90;;;;;;12509870;28;20516;-84
2023/04/16 09:40:30;;;;;;;25.48;17.48;;;9.30;99.90;;;;;;12497878;28;20144;-84
2023/04/16 09:46:42;;;;;;;24.90;16.10;;;9.20;99.90;;;;;;12519106;28;20282;-84
2023/04/16 09:52:50;;;;;;;25.33;17.13;;;9.30;99.90;;;;;;12515994;28;20493;-84
2023/04/16 09:59:02;;;;;;;24.85;16.90;;;9.30;99.90;;;;;;12502672;28;20057;-84
2023/04/16 10:05:20;;;;;;;23.73;16.17;;;9.30;99.90;;;;;;12512171;28;20037;-84
2023/04/16 10:11:29;;;;;;;25.75;17.35;;;9.20;99.90;;;;;;12509250;28;20059;-85
2023/04/16 10:17:38;;;;;;;29.20;17.20;;;9.20;99.90;;;;;;12491341;28;20057;-84
2023/04/16 10:23:53;;;;;;;26.45;17.35;;;9.20;99.90;;;;;;12490925;28;20102;-84
2023/04/16 10:30:02;;;;;;;26.42;16.30;;;9.10;99.90;;;;;;12502651;28;20053;-84
2023/04/16 10:36:14;;;;;;;28.25;16.45;;;9.10;99.90;;;;;;12499510;28;20072;-83
2023/04/16 10:42:22;;;;;;;26.80;17.70;;;9.10;99.90;;;;;;12490089;28;20064;-84
2023/04/16 10:48:30;;;;;;;25.98;16.77;;;9.10;99.90;;;;;;12482854;28;20056;-84
2023/04/16 10:54:52;;;;;;;30.42;16.73;;;9.00;99.90;;;;;;12495524;28;20053;-84
2023/04/16 11:00:54;;;;;;;30.17;17.23;;;9.00;99.90;;;;;;12512925;28;20053;-84
2023/04/16 11:07:00;;;;;;;30.95;16.08;;;8.90;99.90;;;;;;12499078;28;20405;-85
2023/04/16 11:13:05;;;;;;;30.98;19.08;;;8.90;99.90;;;;;;12504618;28;20053;-84
2023/04/16 11:19:15;;;;;;;28.25;16.73;;;8.90;99.90;;;;;;12492728;28;20053;-84
2023/04/16 11:25:35;;;;;;;28.15;17.20;;;9.00;99.90;;;;;;12499472;28;20056;-84
2023/04/16 11:31:37;;;;;;;28.10;16.27;;;9.20;99.90;;;;;;12508934;28;20045;-84
2023/04/16 11:37:41;;;;;;;29.85;17.75;;;9.20;99.90;;;;;;12511176;28;20064;-84
2023/04/16 11:43:43;;;;;;;26.85;16.30;;;9.10;99.90;;;;;;12493517;28;20843;-84
2023/04/16 11:49:45;;;;;;;26.27;16.15;;;9.20;99.90;;;;;;12492071;28;20171;-84
2023/04/16 11:55:47;;;;;;;28.13;15.98;;;9.10;99.90;;;;;;12494556;28;20094;-84
2023/04/16 12:01:51;;;;;;;29.73;16.20;;;9.10;99.90;;;;;;12475739;28;20443;-84
2023/04/16 12:07:54;;;;;;;25.27;16.25;;;9.20;99.90;;;;;;12488319;28;20053;-84
2023/04/16 12:14:09;;;;;;;25.45;16.48;;;9.40;99.90;;;;;;12516279;28;20064;-84
2023/04/16 12:20:13;;;;;;;24.20;15.73;;;9.60;99.90;;;;;;12487267;28;20110;-84
2023/04/16 12:26:16;;;;;;;25.67;15.77;;;9.80;99.90;;;;;;12495548;28;20048;-84
2023/04/16 12:32:22;;;;;;;28.92;15.52;;;9.90;99.90;;;;;;12531861;28;20083;-84
2023/04/16 12:38:25;;;;;;;23.80;15.43;;;10.20;99.90;;;;;;12511183;28;20061;-84
2023/04/16 12:44:28;;;;;;;27.57;15.43;;;10.60;99.90;;;;;;12517058;28;20042;-84
2023/04/16 12:50:30;;;;;;;23.67;14.90;;;10.70;99.90;;;;;;12509643;28;20290;-84
2023/04/16 12:56:32;;;;;;;25.23;15.23;;;11.00;99.90;;;;;;12494136;28;20058;-83
2023/04/16 13:02:34;;;;;;;19.90;12.90;;;11.00;99.90;;;;;;12505797;28;20068;-84
2023/04/16 13:08:37;;;;;;;24.33;15.15;;;11.20;99.90;;;;;;12521431;28;20049;-85
2023/04/16 13:14:39;;;;;;;27.50;14.88;;;11.00;99.90;;;;;;12502970;28;20416;-85
2023/04/16 13:20:42;;;;;;;22.25;13.90;;;11.10;99.90;;;;;;12500207;28;20052;-85
2023/04/16 13:26:44;;;;;;;22.85;14.57;;;11.10;99.90;;;;;;12526844;28;20076;-84
2023/04/16 13:32:46;;;;;;;23.40;14.18;;;11.00;99.90;;;;;;12505309;28;20528;-84
2023/04/16 13:38:48;;;;;;;25.00;14.57;;;11.20;99.90;;;;;;12515199;28;20554;-84
2023/04/16 13:44:52;;;;;;;22.17;14.55;;;11.30;99.90;;;;;;12502607;28;20187;-84
2023/04/16 13:50:55;;;;;;;19.15;14.20;;;11.40;99.90;;;;;;12522884;28;20059;-84
2023/04/16 13:56:57;;;;;;;23.17;13.52;;;11.60;99.90;;;;;;12493037;28;20053;-84
2023/04/16 14:02:59;;;;;;;25.98;14.50;;;11.60;99.90;;;;;;12503877;28;20054;-84
2023/04/16 14:09:01;;;;;;;24.73;14.20;;;11.50;99.90;;;;;;12515431;28;20080;-84
2023/04/16 14:15:05;;;;;;;21.80;13.82;;;11.40;99.90;;;;;;12502419;28;20054;-84
2023/04/16 14:21:08;;;;;;;22.45;14.38;;;11.40;99.90;;;;;;12502339;28;20076;-84
2023/04/16 14:27:10;;;;;;;21.95;14.65;;;11.30;99.90;;;;;;12518584;28;20056;-85
2023/04/16 14:33:11;;;;;;;20.10;13.88;;;11.40;99.90;;;;;;12538302;28;20440;-84
2023/04/16 14:39:14;;;;;;;20.30;14.13;;;11.50;99.90;;;;;;12507908;28;20057;-84
2023/04/16 14:45:17;;;;;;;20.25;13.95;;;11.60;99.90;;;;;;12498157;28;20080;-84
2023/04/16 14:51:19;;;;;;;19.35;12.82;;;11.60;99.90;;;;;;12495668;28;20049;-84
2023/04/16 14:57:21;;;;;;;21.38;14.32;;;11.60;99.90;;;;;;12530851;28;20083;-84
2023/04/16 15:03:23;;;;;;;20.90;14.20;;;11.30;99.90;;;;;;12497398;28;20040;-85
2023/04/16 15:09:26;;;;;;;22.83;14.07;;;11.20;99.90;;;;;;12521194;28;20053;-84
2023/04/16 15:15:28;;;;;;;18.52;12.93;;;11.10;99.90;;;;;;12498492;28;20140;-84
2023/04/16 15:21:30;;;;;;;21.73;14.07;;;11.20;99.90;;;;;;12491506;28;20049;-84
2023/04/16 15:27:32;;;;;;;20.98;13.95;;;11.20;99.90;;;;;;12511658;28;20544;-84
2023/04/16 15:33:34;;;;;;;19.42;13.55;;;11.30;99.90;;;;;;12522763;28;20061;-85
2023/04/16 15:39:36;;;;;;;19.27;13.23;;;11.40;99.90;;;;;;12506829;28;20054;-85
2023/04/16 15:45:38;;;;;;;20.52;13.07;;;11.60;99.90;;;;;;12508997;28;20497;-84
2023/04/16 15:51:40;;;;;;;19.50;13.60;;;11.70;99.90;;;;;;12508100;28;20099;-85
2023/04/16 15:57:42;;;;;;;19.75;13.57;;;11.60;99.90;;;;;;12514582;28;20436;-85
2023/04/16 16:03:44;;;;;;;19.70;12.88;;;11.50;99.90;;;;;;12509250;28;20087;-85
2023/04/16 16:09:46;;;;;;;19.25;13.43;;;11.40;99.90;;;;;;12502694;28;20084;-85
2023/04/16 16:15:49;;;;;;;20.83;12.57;;;11.40;99.90;;;;;;12518769;28;20053;-83
2023/04/16 16:21:51;;;;;;;19.92;12.98;;;11.30;99.90;;;;;;12521062;28;20057;-84
2023/04/16 16:27:53;;;;;;;20.83;14.30;;;11.20;99.90;;;;;;12514032;28;20045;-84
2023/04/16 16:33:55;;;;;;;19.40;13.48;;;11.20;99.90;;;;;;12522431;28;20064;-84
2023/04/16 16:39:56;;;;;;;20.40;13.55;;;11.20;99.90;;;;;;12492474;28;20101;-85
2023/04/16 16:45:58;;;;;;;20.95;13.88;;;11.20;99.90;;;;;;12529543;28;20102;-85
2023/04/16 16:52:00;;;;;;;20.10;13.95;;;11.10;99.90;;;;;;12516368;28;20131;-85
2023/04/16 16:58:03;;;;;;;19.83;13.98;;;11.10;99.90;;;;;;12506330;28;20053;-84
2023/04/16 17:04:04;;;;;;;19.33;14.20;;;11.00;99.90;;;;;;12498169;28;20045;-85
2023/04/16 17:10:09;;;;;;;20.23;13.98;;;11.00;99.90;;;;;;12510538;28;20052;-85
2023/04/16 17:16:13;;;;;;;18.08;13.02;;;10.90;99.90;;;;;;12521781;28;20049;-85
2023/04/16 17:22:15;;;;;;;20.02;13.88;;;10.90;99.90;;;;;;12519474;28;20144;-85
2023/04/16 17:28:18;;;;;;;19.58;14.50;;;10.90;99.90;;;;;;12509830;28;20693;-85
2023/04/16 17:34:21;;;;;;;21.00;14.80;;;10.90;99.90;;;;;;12521714;28;20056;-85
2023/04/16 17:40:23;;;;;;;19.08;13.65;;;10.70;99.90;;;;;;12494287;28;20049;-85
2023/04/16 17:46:25;;;;;;;20.88;15.15;;;10.70;99.90;;;;;;12516386;28;20272;-85
2023/04/16 17:52:28;;;;;;;23.58;15.63;;;10.70;99.90;;;;;;12528606;28;20075;-85
2023/04/16 17:58:33;;;;;;;21.73;15.05;;;10.60;99.90;;;;;;12534692;28;20532;-85
2023/04/16 18:04:35;;;;;;;22.38;16.08;;;10.60;99.90;;;;;;12522533;28;20053;-85
2023/04/16 18:10:38;;;;;;;27.75;16.10;;;10.50;99.90;;;;;;12509474;28;20124;-85
2023/04/16 18:16:40;;;;;;;24.20;16.23;;;10.50;99.90;;;;;;12499868;28;20056;-85
2023/04/16 18:22:42;;;;;;;23.38;16.02;;;10.50;99.90;;;;;;12522694;28;20094;-85
2023/04/16 18:28:44;;;;;;;23.10;16.95;;;10.50;99.90;;;;;;12514752;28;20045;-85
2023/04/16 18:34:46;;;;;;;23.88;15.85;;;10.40;99.90;;;;;;12514768;28;20060;-84
2023/04/16 18:40:48;;;;;;;25.95;16.50;;;10.40;99.90;;;;;;12512556;28;20052;-84
2023/04/16 18:46:50;;;;;;;22.70;14.90;;;10.30;99.90;;;;;;12520836;28;20195;-84
2023/04/16 18:52:52;;;;;;;25.08;16.00;;;10.30;99.90;;;;;;12522814;28;20053;-84
2023/04/16 18:58:54;;;;;;;25.02;17.38;;;10.20;99.90;;;;;;12501024;28;20057;-84
2023/04/16 19:04:56;;;;;;;24.15;15.93;;;10.10;99.90;;;;;;12509403;28;20045;-84
2023/04/16 19:10:58;;;;;;;26.02;17.25;;;10.20;99.90;;;;;;12506537;28;20056;-84
2023/04/16 19:17:00;;;;;;;32.25;17.80;;;10.20;99.90;;;;;;12500418;28;20100;-84
2023/04/16 19:23:04;;;;;;;22.15;15.63;;;10.10;99.90;;;;;;12501395;28;20049;-84
2023/04/16 19:29:06;;;;;;;26.52;17.00;;;9.90;99.90;;;;;;12489696;28;20060;-84
2023/04/16 19:35:08;;;;;;;30.33;17.83;;;9.90;99.90;;;;;;12481041;28;20045;-84
2023/04/16 19:41:10;;;;;;;25.52;17.15;;;9.90;99.90;;;;;;12481342;28;20057;-84
2023/04/16 19:47:12;;;;;;;26.35;16.90;;;10.00;99.90;;;;;;12506956;28;20094;-84
2023/04/16 19:53:16;;;;;;;24.00;16.55;;;9.80;99.90;;;;;;12521124;28;20147;-83
2023/04/16 19:59:19;;;;;;;28.30;16.95;;;9.80;99.90;;;;;;12509759;28;20046;-84
2023/04/16 20:05:21;;;;;;;25.67;16.77;;;9.70;99.90;;;;;;12508182;28;20188;-83
2023/04/16 20:11:23;;;;;;;26.33;16.67;;;9.60;99.90;;;;;;12495166;28;20049;-83
2023/04/16 20:17:24;;;;;;;23.58;15.73;;;9.60;99.90;;;;;;12501223;28;20060;-83
2023/04/16 20:23:26;;;;;;;21.92;14.32;;;9.40;99.90;;;;;;12499350;28;20041;-83
2023/04/16 20:29:28;;;;;;;23.63;14.13;;;9.50;99.90;;;;;;12505166;28;20135;-83
2023/04/16 20:35:30;;;;;;;20.42;13.50;;;9.50;99.90;;;;;;12499900;28;20500;-83
2023/04/16 20:41:32;;;;;;;21.10;14.82;;;9.40;99.90;;;;;;12530142;28;20044;-84
2023/04/16 20:47:34;;;;;;;18.42;12.82;;;9.40;99.90;;;;;;12500151;28;20143;-84
2023/04/16 20:53:37;;;;;;;22.65;14.10;;;9.40;99.90;;;;;;12510962;28;20056;-84
2023/04/16 20:59:39;;;;;;;20.95;14.27;;;9.30;99.90;;;;;;12511694;28;20540;-83
2023/04/16 21:05:41;;;;;;;21.05;14.43;;;9.20;99.90;;;;;;12522950;28;20053;-84
2023/04/16 21:11:42;;;;;;;19.70;15.30;;;9.20;99.90;;;;;;12514251;28;20413;-84
2023/04/16 21:17:44;;;;;;;24.92;16.02;;;9.20;99.90;;;;;;12528428;28;20496;-84
2023/04/16 21:23:46;;;;;;;22.77;15.73;;;9.20;99.90;;;;;;12500193;28;20048;-84
2023/04/16 21:29:48;;;;;;;24.98;15.88;;;9.20;99.90;;;;;;12493985;28;20187;-84
2023/04/16 21:35:51;;;;;;;20.15;15.20;;;9.10;99.90;;;;;;12517957;28;20053;-84
2023/04/16 21:41:53;;;;;;;21.65;14.93;;;9.10;99.90;;;;;;12492170;28;20049;-83
2023/04/16 21:47:55;;;;;;;22.13;15.18;;;8.80;99.90;;;;;;12499104;28;20103;-84
2023/04/16 21:53:57;;;;;;;22.58;14.68;;;8.80;99.90;;;;;;12503112;28;20136;-84
2023/04/16 21:59:59;;;;;;;22.35;14.68;;;8.80;99.90;;;;;;12514865;28;20060;-83
2023/04/16 22:06:01;;;;;;;21.50;14.80;;;8.80;99.90;;;;;;12507449;28;20049;-84
2023/04/16 22:12:05;;;;;;;22.17;14.30;;;8.90;99.90;;;;;;12509103;28;20507;-84
2023/04/16 22:18:08;;;;;;;20.15;14.27;;;8.80;99.90;;;;;;12502283;28;20056;-83
2023/04/16 22:24:10;;;;;;;21.05;14.93;;;8.80;99.90;;;;;;12517710;28;21026;-84
2023/04/16 22:30:12;;;;;;;24.02;16.02;;;8.80;99.90;;;;;;12522068;28;20491;-84
2023/04/16 22:36:14;;;;;;;25.38;15.65;;;8.80;99.90;;;;;;12531724;28;20187;-84
2023/04/16 22:42:16;;;;;;;26.52;16.48;;;8.70;99.90;;;;;;12502753;28;21132;-84
2023/04/16 22:48:18;;;;;;;23.00;16.02;;;8.70;99.90;;;;;;12515586;28;20098;-84
2023/04/16 22:54:20;;;;;;;25.77;16.92;;;8.60;99.90;;;;;;12509278;28;20069;-84
2023/04/16 23:00:23;;;;;;;22.55;17.13;;;8.60;99.90;;;;;;12533337;28;20566;-83
2023/04/16 23:06:28;;;;;;;24.48;17.67;;;8.60;99.90;;;;;;12522755;28;20050;-84
2023/04/16 23:12:30;;;;;;;25.55;18.88;;;8.60;99.90;;;;;;12496779;28;20041;-84
2023/04/16 23:18:32;;;;;;;26.30;19.90;;;8.60;99.90;;;;;;12516772;28;20045;-83
2023/04/16 23:24:34;;;;;;;30.83;19.58;;;8.60;99.90;;;;;;12522098;28;20106;-83
2023/04/16 23:30:35;;;;;;;28.33;19.55;;;8.50;99.90;;;;;;12500479;28;20044;-84
2023/04/16 23:36:38;;;;;;;29.23;19.77;;;8.60;99.90;;;;;;12520873;28;20060;-84
2023/04/16 23:42:40;;;;;;;27.75;19.55;;;8.60;99.90;;;;;;12508584;28;20488;-84
2023/04/16 23:48:41;;;;;;;29.15;20.40;;;8.60;99.90;;;;;;12506244;28;20487;-83
2023/04/16 23:54:43;;;;;;;29.08;20.23;;;8.60;99.90;;;;;;12508079;28;20045;-84
